sensor_id;sensor_type;location;lat;lon;timestamp;temperature;humidity
44461;DHT22;30162;53.642;10.640;2023-05-31T00:01:22;15.70;76.30
44461;DHT22;30162;53.642;10.640;2023-05-31T00:03:48;15.80;76.20
44461;DHT22;30162;53.642;10.640;2023-05-31T00:06:13;15.60;76.90
44461;DHT22;30162;53.642;10.640;2023-05-31T00:08:39;15.40;76.90
44461;DHT22;30162;53.642;10.640;2023-05-31T00:11:06;15.40;77.40
44461;DHT22;30162;53.642;10.640;2023-05-31T00:13:31;15.40;77.30
44461;DHT22;30162;53.642;10.640;2023-05-31T00:15:57;15.40;77.20
44461;DHT22;30162;53.642;10.640;2023-05-31T00:18:22;15.40;77.40
44461;DHT22;30162;53.642;10.640;2023-05-31T00:20:48;15.40;76.80
44461;DHT22;30162;53.642;10.640;2023-05-31T00:23:13;15.30;76.90
44461;DHT22;30162;53.642;10.640;2023-05-31T00:25:39;15.20;77.10
44461;DHT22;30162;53.642;10.640;2023-05-31T00:28:04;15.10;77.50
44461;DHT22;30162;53.642;10.640;2023-05-31T00:30:30;15.10;77.80
44461;DHT22;30162;53.642;10.640;2023-05-31T00:32:55;15.00;78.10
44461;DHT22;30162;53.642;10.640;2023-05-31T00:35:21;15.00;78.70
44461;DHT22;30162;53.642;10.640;2023-05-31T00:37:46;15.00;78.80
44461;DHT22;30162;53.642;10.640;2023-05-31T00:40:11;14.90;78.80
44461;DHT22;30162;53.642;10.640;2023-05-31T00:42:37;14.90;79.00
44461;DHT22;30162;53.642;10.640;2023-05-31T00:45:02;14.90;78.60
44461;DHT22;30162;53.642;10.640;2023-05-31T00:47:28;14.80;78.70
44461;DHT22;30162;53.642;10.640;2023-05-31T00:49:54;14.80;79.30
44461;DHT22;30162;53.642;10.640;2023-05-31T00:52:20;14.90;78.30
44461;DHT22;30162;53.642;10.640;2023-05-31T00:54:45;14.80;78.40
44461;DHT22;30162;53.642;10.640;2023-05-31T00:57:11;14.80;78.80
44461;DHT22;30162;53.642;10.640;2023-05-31T00:59:36;14.70;79.10
44461;DHT22;30162;53.642;10.640;2023-05-31T01:02:02;14.70;79.30
44461;DHT22;30162;53.642;10.640;2023-05-31T01:04:29;14.60;79.60
44461;DHT22;30162;53.642;10.640;2023-05-31T01:06:55;14.60;79.80
44461;DHT22;30162;53.642;10.640;2023-05-31T01:09:21;14.60;79.70
44461;DHT22;30162;53.642;10.640;2023-05-31T01:11:50;14.60;79.90
44461;DHT22;30162;53.642;10.640;2023-05-31T01:16:50;14.50;79.90
44461;DHT22;30162;53.642;10.640;2023-05-31T01:19:20;14.60;80.20
44461;DHT22;30162;53.642;10.640;2023-05-31T01:21:51;14.60;79.00
44461;DHT22;30162;53.642;10.640;2023-05-31T01:24:25;14.50;79.30
44461;DHT22;30162;53.642;10.640;2023-05-31T01:26:50;14.40;79.60
44461;DHT22;30162;53.642;10.640;2023-05-31T01:29:17;14.30;80.10
44461;DHT22;30162;53.642;10.640;2023-05-31T01:31:44;14.30;79.80
44461;DHT22;30162;53.642;10.640;2023-05-31T01:34:11;14.30;79.70
44461;DHT22;30162;53.642;10.640;2023-05-31T01:36:37;14.30;79.70
44461;DHT22;30162;53.642;10.640;2023-05-31T01:39:02;14.30;79.90
44461;DHT22;30162;53.642;10.640;2023-05-31T01:41:28;14.30;79.90
44461;DHT22;30162;53.642;10.640;2023-05-31T01:43:55;14.20;80.00
44461;DHT22;30162;53.642;10.640;2023-05-31T01:46:21;14.20;79.80
44461;DHT22;30162;53.642;10.640;2023-05-31T01:48:47;14.20;80.00
44461;DHT22;30162;53.642;10.640;2023-05-31T01:51:13;14.20;80.40
44461;DHT22;30162;53.642;10.640;2023-05-31T01:53:40;14.20;80.50
44461;DHT22;30162;53.642;10.640;2023-05-31T01:56:05;14.10;80.60
44461;DHT22;30162;53.642;10.640;2023-05-31T01:58:32;14.10;80.60
44461;DHT22;30162;53.642;10.640;2023-05-31T02:00:59;14.10;80.40
44461;DHT22;30162;53.642;10.640;2023-05-31T02:03:25;14.10;79.90
44461;DHT22;30162;53.642;10.640;2023-05-31T02:05:57;14.10;80.10
44461;DHT22;30162;53.642;10.640;2023-05-31T02:08:26;14.00;80.60
44461;DHT22;30162;53.642;10.640;2023-05-31T02:10:52;13.90;80.80
44461;DHT22;30162;53.642;10.640;2023-05-31T02:13:18;13.80;81.00
44461;DHT22;30162;53.642;10.640;2023-05-31T02:15:43;13.80;80.80
44461;DHT22;30162;53.642;10.640;2023-05-31T02:18:09;13.90;81.10
44461;DHT22;30162;53.642;10.640;2023-05-31T02:20:34;13.90;80.40
44461;DHT22;30162;53.642;10.640;2023-05-31T02:23:00;13.90;80.40
44461;DHT22;30162;53.642;10.640;2023-05-31T02:25:25;13.90;80.70
44461;DHT22;30162;53.642;10.640;2023-05-31T02:27:51;13.90;80.80
44461;DHT22;30162;53.642;10.640;2023-05-31T02:30:16;13.80;80.70
44461;DHT22;30162;53.642;10.640;2023-05-31T02:32:42;13.80;81.10
44461;DHT22;30162;53.642;10.640;2023-05-31T02:35:08;13.80;80.80
44461;DHT22;30162;53.642;10.640;2023-05-31T02:37:34;13.80;80.60
44461;DHT22;30162;53.642;10.640;2023-05-31T02:40:00;13.70;80.80
44461;DHT22;30162;53.642;10.640;2023-05-31T02:42:26;13.70;81.30
44461;DHT22;30162;53.642;10.640;2023-05-31T02:44:51;13.70;81.30
44461;DHT22;30162;53.642;10.640;2023-05-31T02:47:17;13.70;81.20
44461;DHT22;30162;53.642;10.640;2023-05-31T02:49:42;13.60;81.50
44461;DHT22;30162;53.642;10.640;2023-05-31T02:52:08;13.60;81.40
44461;DHT22;30162;53.642;10.640;2023-05-31T02:54:33;13.60;81.70
44461;DHT22;30162;53.642;10.640;2023-05-31T02:56:58;13.60;81.30
44461;DHT22;30162;53.642;10.640;2023-05-31T02:59:24;13.60;81.30
44461;DHT22;30162;53.642;10.640;2023-05-31T03:01:50;13.60;81.60
44461;DHT22;30162;53.642;10.640;2023-05-31T03:04:16;13.70;81.60
44461;DHT22;30162;53.642;10.640;2023-05-31T03:06:41;13.80;81.10
44461;DHT22;30162;53.642;10.640;2023-05-31T03:09:07;13.80;80.40
44461;DHT22;30162;53.642;10.640;2023-05-31T03:11:33;13.70;80.20
44461;DHT22;30162;53.642;10.640;2023-05-31T03:13:59;13.80;80.50
44461;DHT22;30162;53.642;10.640;2023-05-31T03:16:24;13.80;80.40
44461;DHT22;30162;53.642;10.640;2023-05-31T03:18:50;13.80;80.20
44461;DHT22;30162;53.642;10.640;2023-05-31T03:21:16;13.80;80.50
44461;DHT22;30162;53.642;10.640;2023-05-31T03:23:41;13.80;80.60
44461;DHT22;30162;53.642;10.640;2023-05-31T03:26:06;13.70;80.90
44461;DHT22;30162;53.642;10.640;2023-05-31T03:28:32;13.70;81.40
44461;DHT22;30162;53.642;10.640;2023-05-31T03:30:57;13.60;81.90
44461;DHT22;30162;53.642;10.640;2023-05-31T03:33:23;13.70;81.70
44461;DHT22;30162;53.642;10.640;2023-05-31T03:35:48;13.70;81.60
44461;DHT22;30162;53.642;10.640;2023-05-31T03:38:14;13.70;81.30
44461;DHT22;30162;53.642;10.640;2023-05-31T03:40:40;13.70;79.60
44461;DHT22;30162;53.642;10.640;2023-05-31T03:43:05;13.70;79.60
44461;DHT22;30162;53.642;10.640;2023-05-31T03:45:31;13.70;78.80
44461;DHT22;30162;53.642;10.640;2023-05-31T03:47:56;13.60;79.30
44461;DHT22;30162;53.642;10.640;2023-05-31T03:50:22;13.60;79.00
44461;DHT22;30162;53.642;10.640;2023-05-31T03:52:47;13.50;79.30
44461;DHT22;30162;53.642;10.640;2023-05-31T03:55:12;13.50;79.30
44461;DHT22;30162;53.642;10.640;2023-05-31T03:57:38;13.50;79.50
44461;DHT22;30162;53.642;10.640;2023-05-31T04:00:04;13.50;80.20
44461;DHT22;30162;53.642;10.640;2023-05-31T04:02:31;13.50;80.20
44461;DHT22;30162;53.642;10.640;2023-05-31T04:04:57;13.60;79.90
44461;DHT22;30162;53.642;10.640;2023-05-31T04:07:22;13.60;80.00
44461;DHT22;30162;53.642;10.640;2023-05-31T04:09:48;13.60;80.20
44461;DHT22;30162;53.642;10.640;2023-05-31T04:12:13;13.80;80.00
44461;DHT22;30162;53.642;10.640;2023-05-31T04:14:38;13.90;79.70
44461;DHT22;30162;53.642;10.640;2023-05-31T04:17:04;13.90;80.00
44461;DHT22;30162;53.642;10.640;2023-05-31T04:19:30;14.00;79.80
44461;DHT22;30162;53.642;10.640;2023-05-31T04:21:56;14.10;79.80
44461;DHT22;30162;53.642;10.640;2023-05-31T04:24:21;14.20;79.90
44461;DHT22;30162;53.642;10.640;2023-05-31T04:26:47;14.40;79.80
44461;DHT22;30162;53.642;10.640;2023-05-31T04:29:13;14.50;79.60
44461;DHT22;30162;53.642;10.640;2023-05-31T04:31:38;14.60;79.60
44461;DHT22;30162;53.642;10.640;2023-05-31T04:34:04;14.70;79.40
44461;DHT22;30162;53.642;10.640;2023-05-31T04:36:29;14.90;80.00
44461;DHT22;30162;53.642;10.640;2023-05-31T04:38:57;15.00;80.10
44461;DHT22;30162;53.642;10.640;2023-05-31T04:41:23;15.10;79.90
44461;DHT22;30162;53.642;10.640;2023-05-31T04:43:52;15.30;79.70
44461;DHT22;30162;53.642;10.640;2023-05-31T04:46:18;15.40;79.90
44461;DHT22;30162;53.642;10.640;2023-05-31T04:48:45;15.50;79.50
44461;DHT22;30162;53.642;10.640;2023-05-31T04:51:12;15.60;79.50
44461;DHT22;30162;53.642;10.640;2023-05-31T04:53:38;15.70;79.40
44461;DHT22;30162;53.642;10.640;2023-05-31T04:56:04;15.80;79.10
44461;DHT22;30162;53.642;10.640;2023-05-31T04:58:33;15.80;79.40
44461;DHT22;30162;53.642;10.640;2023-05-31T05:00:58;16.00;79.60
44461;DHT22;30162;53.642;10.640;2023-05-31T05:03:25;16.20;79.50
44461;DHT22;30162;53.642;10.640;2023-05-31T05:05:51;16.30;79.10
44461;DHT22;30162;53.642;10.640;2023-05-31T05:08:17;16.40;79.20
44461;DHT22;30162;53.642;10.640;2023-05-31T05:10:43;16.60;79.00
44461;DHT22;30162;53.642;10.640;2023-05-31T05:13:08;16.90;78.90
44461;DHT22;30162;53.642;10.640;2023-05-31T05:15:34;17.10;78.40
44461;DHT22;30162;53.642;10.640;2023-05-31T05:17:59;17.20;77.80
44461;DHT22;30162;53.642;10.640;2023-05-31T05:20:25;17.50;77.40
44461;DHT22;30162;53.642;10.640;2023-05-31T05:22:51;17.70;77.10
44461;DHT22;30162;53.642;10.640;2023-05-31T05:25:17;17.80;76.40
44461;DHT22;30162;53.642;10.640;2023-05-31T05:27:42;18.10;76.50
44461;DHT22;30162;53.642;10.640;2023-05-31T05:30:08;18.30;76.00
44461;DHT22;30162;53.642;10.640;2023-05-31T05:32:34;18.50;75.10
44461;DHT22;30162;53.642;10.640;2023-05-31T05:34:59;18.70;74.70
44461;DHT22;30162;53.642;10.640;2023-05-31T05:37:25;18.80;74.90
44461;DHT22;30162;53.642;10.640;2023-05-31T05:39:50;19.00;74.50
44461;DHT22;30162;53.642;10.640;2023-05-31T05:42:16;19.00;74.70
44461;DHT22;30162;53.642;10.640;2023-05-31T05:44:41;19.10;75.60
44461;DHT22;30162;53.642;10.640;2023-05-31T05:47:07;19.20;75.20
44461;DHT22;30162;53.642;10.640;2023-05-31T05:49:32;19.40;75.40
44461;DHT22;30162;53.642;10.640;2023-05-31T05:51:59;19.40;74.60
44461;DHT22;30162;53.642;10.640;2023-05-31T05:54:24;19.60;74.30
44461;DHT22;30162;53.642;10.640;2023-05-31T05:56:50;19.50;74.10
44461;DHT22;30162;53.642;10.640;2023-05-31T05:59:15;19.60;73.70
44461;DHT22;30162;53.642;10.640;2023-05-31T06:01:41;19.70;74.30
44461;DHT22;30162;53.642;10.640;2023-05-31T06:04:06;19.90;73.50
44461;DHT22;30162;53.642;10.640;2023-05-31T06:06:32;20.10;72.30
44461;DHT22;30162;53.642;10.640;2023-05-31T06:08:57;20.30;72.90
44461;DHT22;30162;53.642;10.640;2023-05-31T06:11:23;20.40;73.10
44461;DHT22;30162;53.642;10.640;2023-05-31T06:13:48;20.60;73.20
44461;DHT22;30162;53.642;10.640;2023-05-31T06:16:14;20.80;73.30
44461;DHT22;30162;53.642;10.640;2023-05-31T06:18:39;21.00;73.00
44461;DHT22;30162;53.642;10.640;2023-05-31T06:21:05;21.30;72.60
44461;DHT22;30162;53.642;10.640;2023-05-31T06:23:30;21.40;71.90
44461;DHT22;30162;53.642;10.640;2023-05-31T06:25:55;21.70;72.10
44461;DHT22;30162;53.642;10.640;2023-05-31T06:28:21;21.90;70.90
44461;DHT22;30162;53.642;10.640;2023-05-31T06:30:46;22.20;71.30
44461;DHT22;30162;53.642;10.640;2023-05-31T06:33:12;22.50;69.70
44461;DHT22;30162;53.642;10.640;2023-05-31T06:35:37;22.60;67.90
44461;DHT22;30162;53.642;10.640;2023-05-31T06:38:05;22.80;67.20
44461;DHT22;30162;53.642;10.640;2023-05-31T06:40:30;23.00;66.10
44461;DHT22;30162;53.642;10.640;2023-05-31T06:42:56;23.10;64.60
44461;DHT22;30162;53.642;10.640;2023-05-31T06:45:22;23.30;62.80
44461;DHT22;30162;53.642;10.640;2023-05-31T06:47:48;23.60;59.00
44461;DHT22;30162;53.642;10.640;2023-05-31T06:50:13;23.70;58.00
44461;DHT22;30162;53.642;10.640;2023-05-31T06:52:39;24.00;56.40
44461;DHT22;30162;53.642;10.640;2023-05-31T06:55:05;24.30;57.00
44461;DHT22;30162;53.642;10.640;2023-05-31T06:57:31;24.40;58.00
44461;DHT22;30162;53.642;10.640;2023-05-31T06:59:56;24.60;55.50
44461;DHT22;30162;53.642;10.640;2023-05-31T07:02:22;24.60;53.90
44461;DHT22;30162;53.642;10.640;2023-05-31T07:04:47;24.60;54.30
44461;DHT22;30162;53.642;10.640;2023-05-31T07:07:13;24.60;56.10
44461;DHT22;30162;53.642;10.640;2023-05-31T07:09:39;24.80;57.80
44461;DHT22;30162;53.642;10.640;2023-05-31T07:12:05;24.70;58.90
44461;DHT22;30162;53.642;10.640;2023-05-31T07:14:30;24.70;60.10
44461;DHT22;30162;53.642;10.640;2023-05-31T07:16:56;24.80;58.40
44461;DHT22;30162;53.642;10.640;2023-05-31T07:19:21;24.80;59.00
44461;DHT22;30162;53.642;10.640;2023-05-31T07:21:47;24.80;57.60
44461;DHT22;30162;53.642;10.640;2023-05-31T07:24:12;25.20;56.30
44461;DHT22;30162;53.642;10.640;2023-05-31T07:26:37;25.30;54.00
44461;DHT22;30162;53.642;10.640;2023-05-31T07:29:03;25.00;56.40
44461;DHT22;30162;53.642;10.640;2023-05-31T07:31:28;25.20;55.20
44461;DHT22;30162;53.642;10.640;2023-05-31T07:33:54;25.30;56.20
44461;DHT22;30162;53.642;10.640;2023-05-31T07:36:20;25.50;56.50
44461;DHT22;30162;53.642;10.640;2023-05-31T07:38:49;25.50;55.90
44461;DHT22;30162;53.642;10.640;2023-05-31T07:41:15;25.60;55.10
44461;DHT22;30162;53.642;10.640;2023-05-31T07:43:40;25.30;55.60
44461;DHT22;30162;53.642;10.640;2023-05-31T07:46:06;25.20;57.20
44461;DHT22;30162;53.642;10.640;2023-05-31T07:48:31;25.60;56.60
44461;DHT22;30162;53.642;10.640;2023-05-31T07:50:58;25.80;53.80
44461;DHT22;30162;53.642;10.640;2023-05-31T07:53:24;26.20;54.10
44461;DHT22;30162;53.642;10.640;2023-05-31T07:55:49;26.50;54.00
44461;DHT22;30162;53.642;10.640;2023-05-31T07:58:15;26.70;54.40
44461;DHT22;30162;53.642;10.640;2023-05-31T08:00:40;26.80;55.30
44461;DHT22;30162;53.642;10.640;2023-05-31T08:03:06;27.20;54.80
44461;DHT22;30162;53.642;10.640;2023-05-31T08:05:32;27.30;54.20
44461;DHT22;30162;53.642;10.640;2023-05-31T08:07:57;27.50;54.20
44461;DHT22;30162;53.642;10.640;2023-05-31T08:10:23;27.70;53.90
44461;DHT22;30162;53.642;10.640;2023-05-31T08:12:48;27.70;53.80
44461;DHT22;30162;53.642;10.640;2023-05-31T08:15:14;27.60;51.70
44461;DHT22;30162;53.642;10.640;2023-05-31T08:17:40;27.90;52.50
44461;DHT22;30162;53.642;10.640;2023-05-31T08:20:07;28.30;52.60
44461;DHT22;30162;53.642;10.640;2023-05-31T08:22:32;28.40;52.00
44461;DHT22;30162;53.642;10.640;2023-05-31T08:24:58;28.70;51.70
44461;DHT22;30162;53.642;10.640;2023-05-31T08:27:23;28.50;50.40
44461;DHT22;30162;53.642;10.640;2023-05-31T08:29:50;28.50;51.20
44461;DHT22;30162;53.642;10.640;2023-05-31T08:32:15;28.50;51.40
44461;DHT22;30162;53.642;10.640;2023-05-31T08:34:41;28.50;51.10
44461;DHT22;30162;53.642;10.640;2023-05-31T08:37:10;28.50;50.40
44461;DHT22;30162;53.642;10.640;2023-05-31T08:39:35;28.50;50.80
44461;DHT22;30162;53.642;10.640;2023-05-31T08:42:05;28.60;51.50
44461;DHT22;30162;53.642;10.640;2023-05-31T08:44:32;28.70;51.00
44461;DHT22;30162;53.642;10.640;2023-05-31T08:46:59;28.60;51.20
44461;DHT22;30162;53.642;10.640;2023-05-31T08:49:28;28.60;51.70
44461;DHT22;30162;53.642;10.640;2023-05-31T08:51:53;28.80;51.30
44461;DHT22;30162;53.642;10.640;2023-05-31T08:54:20;28.60;50.60
44461;DHT22;30162;53.642;10.640;2023-05-31T08:56:46;28.60;50.60
44461;DHT22;30162;53.642;10.640;2023-05-31T08:59:12;28.80;50.20
44461;DHT22;30162;53.642;10.640;2023-05-31T09:01:41;28.80;50.20
44461;DHT22;30162;53.642;10.640;2023-05-31T09:04:09;28.60;51.80
44461;DHT22;30162;53.642;10.640;2023-05-31T09:06:35;28.70;50.10
44461;DHT22;30162;53.642;10.640;2023-05-31T09:09:01;28.60;51.80
44461;DHT22;30162;53.642;10.640;2023-05-31T09:11:27;28.70;50.90
44461;DHT22;30162;53.642;10.640;2023-05-31T09:13:52;28.80;51.20
44461;DHT22;30162;53.642;10.640;2023-05-31T09:16:19;28.80;50.80
44461;DHT22;30162;53.642;10.640;2023-05-31T09:18:44;28.80;51.10
44461;DHT22;30162;53.642;10.640;2023-05-31T09:21:11;29.20;51.00
44461;DHT22;30162;53.642;10.640;2023-05-31T09:23:36;28.90;49.60
44461;DHT22;30162;53.642;10.640;2023-05-31T09:26:04;28.80;50.70
44461;DHT22;30162;53.642;10.640;2023-05-31T09:28:31;29.10;50.30
44461;DHT22;30162;53.642;10.640;2023-05-31T09:31:06;29.40;50.10
44461;DHT22;30162;53.642;10.640;2023-05-31T09:33:39;28.70;49.70
44461;DHT22;30162;53.642;10.640;2023-05-31T09:36:05;28.60;50.30
44461;DHT22;30162;53.642;10.640;2023-05-31T09:38:31;29.10;50.30
44461;DHT22;30162;53.642;10.640;2023-05-31T09:41:13;29.40;50.60
44461;DHT22;30162;53.642;10.640;2023-05-31T09:43:39;29.40;49.90
44461;DHT22;30162;53.642;10.640;2023-05-31T09:46:10;29.50;49.10
44461;DHT22;30162;53.642;10.640;2023-05-31T09:48:35;29.60;49.30
44461;DHT22;30162;53.642;10.640;2023-05-31T09:51:01;29.80;49.70
44461;DHT22;30162;53.642;10.640;2023-05-31T09:53:26;29.80;48.70
44461;DHT22;30162;53.642;10.640;2023-05-31T09:55:52;30.00;48.10
44461;DHT22;30162;53.642;10.640;2023-05-31T09:58:29;30.30;49.00
44461;DHT22;30162;53.642;10.640;2023-05-31T10:00:58;30.50;49.00
44461;DHT22;30162;53.642;10.640;2023-05-31T10:03:24;30.40;47.90
44461;DHT22;30162;53.642;10.640;2023-05-31T10:05:50;29.60;47.90
44461;DHT22;30162;53.642;10.640;2023-05-31T10:08:15;29.60;49.60
44461;DHT22;30162;53.642;10.640;2023-05-31T10:10:41;29.90;48.60
44461;DHT22;30162;53.642;10.640;2023-05-31T10:13:06;30.10;49.50
44461;DHT22;30162;53.642;10.640;2023-05-31T10:15:33;30.50;48.30
44461;DHT22;30162;53.642;10.640;2023-05-31T10:18:01;30.70;48.10
44461;DHT22;30162;53.642;10.640;2023-05-31T10:20:32;30.10;49.10
44461;DHT22;30162;53.642;10.640;2023-05-31T10:23:02;29.80;48.00
44461;DHT22;30162;53.642;10.640;2023-05-31T10:25:32;30.10;48.00
44461;DHT22;30162;53.642;10.640;2023-05-31T10:28:00;30.40;48.10
44461;DHT22;30162;53.642;10.640;2023-05-31T10:30:27;30.50;47.60
44461;DHT22;30162;53.642;10.640;2023-05-31T10:33:29;30.70;47.60
44461;DHT22;30162;53.642;10.640;2023-05-31T10:35:47;30.90;47.40
44461;DHT22;30162;53.642;10.640;2023-05-31T10:38:13;30.90;47.30
44461;DHT22;30162;53.642;10.640;2023-05-31T10:43:13;30.50;47.50
44461;DHT22;30162;53.642;10.640;2023-05-31T10:45:40;30.70;47.10
44461;DHT22;30162;53.642;10.640;2023-05-31T10:48:13;30.80;47.70
44461;DHT22;30162;53.642;10.640;2023-05-31T10:50:56;30.70;47.40
44461;DHT22;30162;53.642;10.640;2023-05-31T10:53:28;30.60;47.80
44461;DHT22;30162;53.642;10.640;2023-05-31T10:55:55;30.50;48.50
44461;DHT22;30162;53.642;10.640;2023-05-31T10:58:35;30.60;46.90
44461;DHT22;30162;53.642;10.640;2023-05-31T11:01:14;30.90;48.20
44461;DHT22;30162;53.642;10.640;2023-05-31T11:03:44;31.10;47.30
44461;DHT22;30162;53.642;10.640;2023-05-31T11:06:09;31.10;47.40
44461;DHT22;30162;53.642;10.640;2023-05-31T11:08:37;30.90;48.10
44461;DHT22;30162;53.642;10.640;2023-05-31T11:13:57;31.30;46.30
44461;DHT22;30162;53.642;10.640;2023-05-31T11:16:24;31.40;46.90
44461;DHT22;30162;53.642;10.640;2023-05-31T11:18:50;31.10;46.80
44461;DHT22;30162;53.642;10.640;2023-05-31T11:24:10;31.20;46.10
44461;DHT22;30162;53.642;10.640;2023-05-31T11:26:53;31.30;46.00
44461;DHT22;30162;53.642;10.640;2023-05-31T11:29:18;31.40;46.00
44461;DHT22;30162;53.642;10.640;2023-05-31T11:34:23;31.70;46.20
44461;DHT22;30162;53.642;10.640;2023-05-31T11:36:49;31.90;44.60
44461;DHT22;30162;53.642;10.640;2023-05-31T11:39:18;31.70;46.20
44461;DHT22;30162;53.642;10.640;2023-05-31T11:41:44;31.80;44.80
44461;DHT22;30162;53.642;10.640;2023-05-31T11:44:10;32.10;45.00
44461;DHT22;30162;53.642;10.640;2023-05-31T11:46:36;32.30;45.00
44461;DHT22;30162;53.642;10.640;2023-05-31T11:49:04;32.00;45.10
44461;DHT22;30162;53.642;10.640;2023-05-31T11:51:30;31.70;44.30
44461;DHT22;30162;53.642;10.640;2023-05-31T11:53:56;31.70;44.30
44461;DHT22;30162;53.642;10.640;2023-05-31T11:56:29;31.70;45.00
44461;DHT22;30162;53.642;10.640;2023-05-31T11:58:58;31.40;44.20
44461;DHT22;30162;53.642;10.640;2023-05-31T12:01:23;31.40;45.40
44461;DHT22;30162;53.642;10.640;2023-05-31T12:03:56;31.40;45.80
44461;DHT22;30162;53.642;10.640;2023-05-31T12:06:22;31.50;44.20
44461;DHT22;30162;53.642;10.640;2023-05-31T12:08:47;31.60;45.40
44461;DHT22;30162;53.642;10.640;2023-05-31T12:11:13;31.50;44.60
44461;DHT22;30162;53.642;10.640;2023-05-31T12:13:38;31.60;44.50
44461;DHT22;30162;53.642;10.640;2023-05-31T12:16:04;31.60;44.60
44461;DHT22;30162;53.642;10.640;2023-05-31T12:18:29;31.70;44.50
44461;DHT22;30162;53.642;10.640;2023-05-31T12:20:55;31.60;45.70
44461;DHT22;30162;53.642;10.640;2023-05-31T12:23:20;31.60;46.00
44461;DHT22;30162;53.642;10.640;2023-05-31T12:25:50;31.70;45.30
44461;DHT22;30162;53.642;10.640;2023-05-31T12:28:16;32.00;45.30
44461;DHT22;30162;53.642;10.640;2023-05-31T12:30:43;31.70;44.50
44461;DHT22;30162;53.642;10.640;2023-05-31T12:33:09;31.70;44.90
44461;DHT22;30162;53.642;10.640;2023-05-31T12:35:42;32.00;45.30
44461;DHT22;30162;53.642;10.640;2023-05-31T12:38:07;31.90;44.30
44461;DHT22;30162;53.642;10.640;2023-05-31T12:40:36;32.20;44.50
44461;DHT22;30162;53.642;10.640;2023-05-31T12:43:01;32.30;45.00
44461;DHT22;30162;53.642;10.640;2023-05-31T12:45:27;32.30;44.30
44461;DHT22;30162;53.642;10.640;2023-05-31T12:47:57;32.30;45.80
44461;DHT22;30162;53.642;10.640;2023-05-31T12:50:22;32.30;46.10
44461;DHT22;30162;53.642;10.640;2023-05-31T12:52:54;32.10;45.70
44461;DHT22;30162;53.642;10.640;2023-05-31T12:55:20;31.60;45.40
44461;DHT22;30162;53.642;10.640;2023-05-31T12:57:45;31.30;45.60
44461;DHT22;30162;53.642;10.640;2023-05-31T13:00:11;31.50;47.30
44461;DHT22;30162;53.642;10.640;2023-05-31T13:02:38;31.90;46.90
44461;DHT22;30162;53.642;10.640;2023-05-31T13:05:04;32.10;47.10
44461;DHT22;30162;53.642;10.640;2023-05-31T13:07:29;32.10;47.80
44461;DHT22;30162;53.642;10.640;2023-05-31T13:09:55;32.20;47.60
44461;DHT22;30162;53.642;10.640;2023-05-31T13:12:20;32.40;47.60
44461;DHT22;30162;53.642;10.640;2023-05-31T13:14:46;32.40;47.40
44461;DHT22;30162;53.642;10.640;2023-05-31T13:17:12;32.30;47.50
44461;DHT22;30162;53.642;10.640;2023-05-31T13:19:38;32.30;47.30
44461;DHT22;30162;53.642;10.640;2023-05-31T13:22:03;32.30;47.50
44461;DHT22;30162;53.642;10.640;2023-05-31T13:24:29;32.20;47.70
44461;DHT22;30162;53.642;10.640;2023-05-31T13:26:54;32.20;47.90
44461;DHT22;30162;53.642;10.640;2023-05-31T13:29:20;32.30;47.70
44461;DHT22;30162;53.642;10.640;2023-05-31T13:31:47;32.40;47.50
44461;DHT22;30162;53.642;10.640;2023-05-31T13:34:13;32.00;48.40
44461;DHT22;30162;53.642;10.640;2023-05-31T13:36:38;32.20;47.90
44461;DHT22;30162;53.642;10.640;2023-05-31T13:39:04;32.00;48.50
44461;DHT22;30162;53.642;10.640;2023-05-31T13:41:30;32.10;48.60
44461;DHT22;30162;53.642;10.640;2023-05-31T13:43:55;32.30;48.40
44461;DHT22;30162;53.642;10.640;2023-05-31T13:46:21;32.20;49.20
44461;DHT22;30162;53.642;10.640;2023-05-31T13:48:47;31.90;48.90
44461;DHT22;30162;53.642;10.640;2023-05-31T13:51:15;31.90;48.60
44461;DHT22;30162;53.642;10.640;2023-05-31T13:53:41;32.30;48.90
44461;DHT22;30162;53.642;10.640;2023-05-31T13:56:06;32.30;48.70
44461;DHT22;30162;53.642;10.640;2023-05-31T13:58:34;32.00;48.60
44461;DHT22;30162;53.642;10.640;2023-05-31T14:00:59;32.10;48.00
44461;DHT22;30162;53.642;10.640;2023-05-31T14:03:25;32.10;47.80
44461;DHT22;30162;53.642;10.640;2023-05-31T14:05:50;32.30;48.40
44461;DHT22;30162;53.642;10.640;2023-05-31T14:08:16;32.30;47.90
44461;DHT22;30162;53.642;10.640;2023-05-31T14:10:43;32.30;48.40
44461;DHT22;30162;53.642;10.640;2023-05-31T14:13:09;32.20;48.70
44461;DHT22;30162;53.642;10.640;2023-05-31T14:15:36;32.20;49.10
44461;DHT22;30162;53.642;10.640;2023-05-31T14:18:01;32.30;49.20
44461;DHT22;30162;53.642;10.640;2023-05-31T14:20:27;32.10;48.30
44461;DHT22;30162;53.642;10.640;2023-05-31T14:22:52;31.90;48.50
44461;DHT22;30162;53.642;10.640;2023-05-31T14:25:18;31.70;48.00
44461;DHT22;30162;53.642;10.640;2023-05-31T14:27:43;31.60;47.90
44461;DHT22;30162;53.642;10.640;2023-05-31T14:30:09;31.80;48.60
44461;DHT22;30162;53.642;10.640;2023-05-31T14:32:34;31.70;47.50
44461;DHT22;30162;53.642;10.640;2023-05-31T14:35:00;31.50;48.30
44461;DHT22;30162;53.642;10.640;2023-05-31T14:37:25;31.20;48.40
44461;DHT22;30162;53.642;10.640;2023-05-31T14:39:51;31.10;48.60
44461;DHT22;30162;53.642;10.640;2023-05-31T14:42:16;31.00;48.50
44461;DHT22;30162;53.642;10.640;2023-05-31T14:44:42;31.30;48.40
44461;DHT22;30162;53.642;10.640;2023-05-31T14:47:07;31.60;47.50
44461;DHT22;30162;53.642;10.640;2023-05-31T14:49:33;31.40;47.40
44461;DHT22;30162;53.642;10.640;2023-05-31T14:51:58;31.40;47.50
44461;DHT22;30162;53.642;10.640;2023-05-31T14:54:24;31.00;47.30
44461;DHT22;30162;53.642;10.640;2023-05-31T14:56:50;30.90;48.20
44461;DHT22;30162;53.642;10.640;2023-05-31T14:59:15;31.10;48.00
44461;DHT22;30162;53.642;10.640;2023-05-31T15:01:41;30.90;47.40
44461;DHT22;30162;53.642;10.640;2023-05-31T15:04:15;31.00;48.20
44461;DHT22;30162;53.642;10.640;2023-05-31T15:06:41;31.00;48.70
44461;DHT22;30162;53.642;10.640;2023-05-31T15:09:07;30.90;48.70
44461;DHT22;30162;53.642;10.640;2023-05-31T15:11:34;31.00;48.90
44461;DHT22;30162;53.642;10.640;2023-05-31T15:13:59;31.00;48.50
44461;DHT22;30162;53.642;10.640;2023-05-31T15:16:25;30.90;49.20
44461;DHT22;30162;53.642;10.640;2023-05-31T15:18:51;31.00;48.70
44461;DHT22;30162;53.642;10.640;2023-05-31T15:21:16;31.10;48.50
44461;DHT22;30162;53.642;10.640;2023-05-31T15:23:42;30.80;48.50